createdAt,value
2023-05-14T00:00:34.330Z,100731.22
2023-05-14T00:03:03.488Z,100720.09
2023-05-14T00:05:30.926Z,100713.59
2023-05-14T00:07:58.411Z,100712.28
2023-05-14T00:10:25.899Z,100710.41
2023-05-14T00:12:53.358Z,100714.03
2023-05-14T00:15:20.832Z,100707.72
2023-05-14T00:17:48.286Z,100707.81
2023-05-14T00:20:17.065Z,100698.47
2023-05-14T00:22:44.521Z,100700.81
2023-05-14T00:25:11.973Z,100698.06
2023-05-14T00:27:39.393Z,100690.88
2023-05-14T00:30:07.683Z,100689.97
2023-05-14T00:32:35.091Z,100690.69
2023-05-14T00:35:04.241Z,100687.38
2023-05-14T00:37:32.956Z,100678.88
2023-05-14T00:40:00.434Z,100683.31
2023-05-14T00:42:27.900Z,100675.00
2023-05-14T00:44:55.464Z,100678.66
2023-05-14T00:47:23.260Z,100683.31
2023-05-14T00:49:50.906Z,100674.31
2023-05-14T00:52:18.837Z,100674.91
2023-05-14T00:54:48.954Z,100672.47
2023-05-14T00:57:16.443Z,100673.97
2023-05-14T00:59:43.953Z,100680.75
2023-05-14T01:02:11.791Z,100673.97
2023-05-14T01:04:39.763Z,100675.13
2023-05-14T01:07:15.109Z,100674.69
2023-05-14T01:09:48.356Z,100675.03
2023-05-14T01:12:22.491Z,100664.97
2023-05-14T01:14:57.934Z,100670.47
2023-05-14T01:17:29.229Z,100672.88
2023-05-14T01:19:57.726Z,100664.16
2023-05-14T01:22:26.459Z,100666.03
2023-05-14T01:24:53.915Z,100666.47
2023-05-14T01:27:27.126Z,100668.84
2023-05-14T01:30:04.213Z,100668.03
2023-05-14T01:32:33.326Z,100664.16
2023-05-14T01:35:02.164Z,100673.03
2023-05-14T01:37:31.977Z,100665.78
2023-05-14T01:40:01.068Z,100666.03
2023-05-14T01:42:29.545Z,100664.28
2023-05-14T01:44:57.319Z,100669.09
2023-05-14T01:47:24.831Z,100669.44
2023-05-14T01:49:52.219Z,100664.88
2023-05-14T01:52:21.189Z,100674.22
2023-05-14T01:54:49.936Z,100661.59
2023-05-14T01:57:17.372Z,100659.25
2023-05-14T01:59:44.771Z,100663.41
2023-05-14T02:02:12.167Z,100665.16
2023-05-14T02:04:39.661Z,100670.09
2023-05-14T02:07:07.040Z,100665.91
2023-05-14T02:09:34.642Z,100662.84
2023-05-14T02:12:03.365Z,100670.31
2023-05-14T02:14:31.004Z,100668.09
2023-05-14T02:16:58.397Z,100668.56
2023-05-14T02:19:25.838Z,100663.72
2023-05-14T02:21:53.274Z,100660.22
2023-05-14T02:24:20.645Z,100658.25
2023-05-14T02:26:48.340Z,100657.75
2023-05-14T02:29:17.027Z,100645.63
2023-05-14T02:31:44.481Z,100646.41
2023-05-14T02:34:11.923Z,100641.66
2023-05-14T02:36:39.969Z,100656.94
2023-05-14T02:39:07.353Z,100654.91
2023-05-14T02:41:34.745Z,100648.56
2023-05-14T02:44:02.193Z,100650.13
2023-05-14T02:46:31.606Z,100644.47
2023-05-14T02:48:59.126Z,100646.09
2023-05-14T02:51:27.057Z,100647.53
2023-05-14T02:53:54.463Z,100645.63
2023-05-14T02:56:22.287Z,100649.13
2023-05-14T02:58:49.652Z,100639.47
2023-05-14T03:01:18.705Z,100653.13
2023-05-14T03:03:48.254Z,100655.41
2023-05-14T03:06:16.164Z,100646.22
2023-05-14T03:08:43.586Z,100640.91
2023-05-14T03:11:11.391Z,100651.03
2023-05-14T03:13:38.826Z,100647.06
2023-05-14T03:16:06.624Z,100646.25
2023-05-14T03:18:34.806Z,100644.47
2023-05-14T03:21:04.353Z,100639.75
2023-05-14T03:23:34.888Z,100654.88
2023-05-14T03:26:02.552Z,100648.13
2023-05-14T03:28:29.997Z,100644.16
2023-05-14T03:30:57.526Z,100647.91
2023-05-14T03:33:25.020Z,100636.25
2023-05-14T03:35:52.418Z,100642.09
2023-05-14T03:38:21.171Z,100637.19
2023-05-14T03:40:48.741Z,100632.28
2023-05-14T03:43:16.298Z,100631.91
2023-05-14T03:45:43.706Z,100637.25
2023-05-14T03:48:11.176Z,100646.88
2023-05-14T03:50:38.792Z,100642.03
2023-05-14T03:53:06.226Z,100637.78
2023-05-14T03:55:34.954Z,100634.78
2023-05-14T03:58:02.724Z,100630.13
2023-05-14T04:00:30.346Z,100633.41
2023-05-14T04:02:57.876Z,100632.50
2023-05-14T04:05:25.397Z,100628.75
2023-05-14T04:07:52.846Z,100618.69
2023-05-14T04:10:20.370Z,100617.00
2023-05-14T04:12:49.067Z,100612.38
2023-05-14T04:15:16.493Z,100613.59
2023-05-14T04:17:43.969Z,100610.66
2023-05-14T04:20:11.776Z,100615.16
2023-05-14T04:22:39.158Z,100621.97
2023-05-14T04:25:07.623Z,100615.47
2023-05-14T04:27:35.252Z,100610.03
2023-05-14T04:30:04.344Z,100616.34
2023-05-14T04:32:31.780Z,100616.03
2023-05-14T04:34:59.151Z,100610.22
2023-05-14T04:37:26.818Z,100611.88
2023-05-14T04:39:54.173Z,100610.13
2023-05-14T04:42:21.606Z,100603.63
2023-05-14T04:44:50.700Z,100599.38
2023-05-14T04:47:19.709Z,100599.28
2023-05-14T04:49:47.150Z,100596.13
2023-05-14T04:52:14.786Z,100592.31
2023-05-14T04:54:42.285Z,100591.13
2023-05-14T04:57:09.721Z,100597.25
2023-05-14T04:59:37.149Z,100589.63
2023-05-14T05:02:04.807Z,100590.63
2023-05-14T05:04:33.548Z,100590.16
2023-05-14T05:07:00.995Z,100593.28
2023-05-14T05:09:28.382Z,100593.59
2023-05-14T05:11:55.833Z,100592.91
2023-05-14T05:14:23.295Z,100589.72
2023-05-14T05:16:52.170Z,100589.06
2023-05-14T05:19:22.350Z,100589.72
2023-05-14T05:21:55.688Z,100585.00
2023-05-14T05:24:23.101Z,100582.72
2023-05-14T05:26:51.842Z,100580.44
2023-05-14T05:29:19.242Z,100581.38
2023-05-14T05:31:46.668Z,100584.69
2023-05-14T05:34:14.113Z,100577.13
2023-05-14T05:36:41.694Z,100579.28
2023-05-14T05:39:10.437Z,100573.03
2023-05-14T05:41:46.838Z,100578.84
2023-05-14T05:44:14.226Z,100569.19
2023-05-14T05:46:41.754Z,100568.22
2023-05-14T05:49:09.188Z,100570.56
2023-05-14T05:51:36.568Z,100573.63
2023-05-14T05:54:04.105Z,100562.59
2023-05-14T05:56:32.896Z,100561.13
2023-05-14T05:59:00.474Z,100559.75
2023-05-14T06:01:27.899Z,100566.06
2023-05-14T06:03:55.253Z,100567.31
2023-05-14T06:06:22.682Z,100567.41
2023-05-14T06:08:50.140Z,100566.53
2023-05-14T06:11:18.095Z,100561.44
2023-05-14T06:13:46.783Z,100565.78
2023-05-14T06:16:14.141Z,100558.25
2023-05-14T06:18:41.591Z,100554.91
2023-05-14T06:21:08.973Z,100557.94
2023-05-14T06:23:36.367Z,100559.13
2023-05-14T06:26:03.888Z,100558.22
2023-05-14T06:28:31.270Z,100561.75
2023-05-14T06:30:59.969Z,100555.53
2023-05-14T06:33:30.766Z,100564.25
2023-05-14T06:35:59.330Z,100560.91
2023-05-14T06:38:26.695Z,100553.38
2023-05-14T06:40:54.106Z,100560.69
2023-05-14T06:43:21.566Z,100546.59
2023-05-14T06:45:49.706Z,100553.78
2023-05-14T06:48:18.944Z,100546.50
2023-05-14T06:50:46.512Z,100549.97
2023-05-14T06:53:14.095Z,100539.22
2023-05-14T06:55:41.721Z,100536.28
2023-05-14T06:58:09.463Z,100538.50
2023-05-14T07:00:36.995Z,100536.56
2023-05-14T07:03:04.511Z,100536.09
2023-05-14T07:05:33.314Z,100533.44
2023-05-14T07:08:00.723Z,100529.38
2023-05-14T07:10:28.201Z,100525.78
2023-05-14T07:12:55.709Z,100519.84
2023-05-14T07:15:23.117Z,100517.84
2023-05-14T07:17:50.622Z,100515.81
2023-05-14T07:20:17.998Z,100520.53
2023-05-14T07:22:46.746Z,100510.78
2023-05-14T07:25:14.208Z,100520.47
2023-05-14T07:27:41.595Z,100512.06
2023-05-14T07:30:09.633Z,100506.88
2023-05-14T07:32:37.112Z,100506.88
2023-05-14T07:35:05.476Z,100510.03
2023-05-14T07:37:32.909Z,100512.47
2023-05-14T07:40:01.653Z,100509.44
2023-05-14T07:42:36.620Z,100504.97
2023-05-14T07:45:05.393Z,100501.34
2023-05-14T07:47:33.134Z,100503.72
2023-05-14T07:50:02.853Z,100492.66
2023-05-14T07:52:30.251Z,100492.88
2023-05-14T07:54:57.660Z,100499.19
2023-05-14T07:57:26.367Z,100487.19
2023-05-14T07:59:53.923Z,100490.78
2023-05-14T08:02:21.613Z,100487.56
2023-05-14T08:04:49.075Z,100493.66
2023-05-14T08:07:16.500Z,100494.84
2023-05-14T08:09:43.926Z,100492.81
2023-05-14T08:12:13.668Z,100489.25
2023-05-14T08:14:42.448Z,100491.66
2023-05-14T08:17:12.636Z,100488.03
2023-05-14T08:19:40.141Z,100485.13
2023-05-14T08:22:07.585Z,100488.28
2023-05-14T08:24:34.948Z,100486.00
2023-05-14T08:27:02.433Z,100475.06
2023-05-14T08:29:29.863Z,100481.09
2023-05-14T08:32:00.259Z,100475.06
2023-05-14T08:34:29.772Z,100480.28
2023-05-14T08:36:57.232Z,100484.00
2023-05-14T08:39:24.635Z,100485.13
2023-05-14T08:41:52.659Z,100476.63
2023-05-14T08:44:21.662Z,100477.03
2023-05-14T08:46:51.120Z,100478.28
2023-05-14T08:49:30.691Z,100470.59
2023-05-14T08:51:58.680Z,100478.72
2023-05-14T08:54:28.529Z,100466.97
2023-05-14T08:56:56.553Z,100470.38
2023-05-14T08:59:23.945Z,100464.81
2023-05-14T09:01:55.250Z,100461.69
2023-05-14T09:04:26.848Z,100466.13
2023-05-14T09:06:55.679Z,100463.31
2023-05-14T09:09:23.910Z,100468.59
2023-05-14T09:11:53.089Z,100468.41
2023-05-14T09:14:21.576Z,100468.53
2023-05-14T09:16:50.362Z,100462.50
2023-05-14T09:19:19.871Z,100459.28
2023-05-14T09:21:50.492Z,100456.81
2023-05-14T09:24:26.163Z,100449.47
2023-05-14T09:26:57.662Z,100452.38
2023-05-14T09:29:25.648Z,100444.22
2023-05-14T09:31:53.499Z,100447.84
2023-05-14T09:34:25.698Z,100436.81
2023-05-14T09:36:58.231Z,100440.16
2023-05-14T09:39:26.484Z,100427.31
2023-05-14T09:41:54.730Z,100425.47
2023-05-14T09:44:22.809Z,100430.88
2023-05-14T09:46:51.428Z,100419.28
2023-05-14T09:49:19.128Z,100419.97
2023-05-14T09:51:46.576Z,100417.28
2023-05-14T09:54:15.422Z,100412.78
2023-05-14T09:56:44.986Z,100410.88
2023-05-14T09:59:12.598Z,100411.69
2023-05-14T10:01:43.376Z,100399.72
2023-05-14T10:04:12.088Z,100400.03
2023-05-14T10:06:42.054Z,100396.91
2023-05-14T10:09:14.676Z,100388.66
2023-05-14T10:11:45.482Z,100385.31
2023-05-14T10:14:18.199Z,100385.81
2023-05-14T10:16:50.006Z,100378.91
2023-05-14T10:19:19.151Z,100375.94
2023-05-14T10:21:51.018Z,100377.09
2023-05-14T10:24:21.070Z,100371.53
2023-05-14T10:26:49.354Z,100375.00
2023-05-14T10:29:16.761Z,100373.88
2023-05-14T10:31:48.597Z,100374.19
2023-05-14T10:34:37.507Z,100379.25
2023-05-14T10:37:07.216Z,100369.22
2023-05-14T10:39:47.485Z,100372.41
2023-05-14T10:42:18.331Z,100356.25
2023-05-14T10:44:50.158Z,100364.56
2023-05-14T10:47:18.230Z,100369.38
2023-05-14T10:49:48.949Z,100366.91
2023-05-14T10:52:19.151Z,100377.25
2023-05-14T10:54:52.643Z,100362.41
2023-05-14T10:57:20.761Z,100360.41
2023-05-14T10:59:49.706Z,100360.03
2023-05-14T11:02:23.047Z,100356.56
2023-05-14T11:04:58.638Z,100355.78
2023-05-14T11:07:29.329Z,100358.78
2023-05-14T11:10:05.054Z,100353.38
2023-05-14T11:12:33.499Z,100348.50
2023-05-14T11:15:03.475Z,100351.78
2023-05-14T11:17:32.824Z,100343.09
2023-05-14T11:20:00.981Z,100334.50
2023-05-14T11:22:28.562Z,100334.34
2023-05-14T11:24:56.037Z,100334.53
2023-05-14T11:27:24.858Z,100336.41
2023-05-14T11:29:52.260Z,100325.00
2023-05-14T11:32:21.021Z,100324.56
2023-05-14T11:34:48.646Z,100330.13
2023-05-14T11:37:17.378Z,100322.16
2023-05-14T11:39:49.657Z,100313.19
2023-05-14T11:42:19.421Z,100316.66
2023-05-14T11:44:53.834Z,100316.88
2023-05-14T11:47:22.737Z,100308.25
2023-05-14T11:49:50.491Z,100304.75
2023-05-14T11:52:21.673Z,100314.09
2023-05-14T11:54:50.708Z,100299.06
2023-05-14T11:57:21.462Z,100293.63
2023-05-14T11:59:56.553Z,100288.84
2023-05-14T12:02:24.323Z,100289.72
2023-05-14T12:04:52.961Z,100283.38
2023-05-14T12:07:20.753Z,100278.41
2023-05-14T12:09:50.102Z,100284.22
2023-05-14T12:12:19.960Z,100276.41
2023-05-14T12:14:48.084Z,100271.16
2023-05-14T12:17:18.462Z,100272.53
2023-05-14T12:19:48.366Z,100274.38
2023-05-14T12:22:18.036Z,100267.16
2023-05-14T12:24:53.847Z,100265.75
2023-05-14T12:27:23.160Z,100272.22
2023-05-14T12:29:53.274Z,100264.50
2023-05-14T12:32:22.083Z,100259.47
2023-05-14T12:34:49.500Z,100262.53
2023-05-14T12:37:18.344Z,100255.94
2023-05-14T12:39:45.762Z,100247.78
2023-05-14T12:42:13.131Z,100255.91
2023-05-14T12:44:40.540Z,100247.47
2023-05-14T12:47:08.003Z,100241.72
2023-05-14T12:49:37.061Z,100243.31
2023-05-14T12:52:22.692Z,100233.25
2023-05-14T12:54:52.691Z,100230.66
2023-05-14T12:57:20.102Z,100229.25
2023-05-14T12:59:52.172Z,100224.44
2023-05-14T13:02:19.591Z,100230.88
2023-05-14T13:04:48.408Z,100226.63
2023-05-14T13:07:16.276Z,100224.63
2023-05-14T13:09:43.641Z,100223.88
2023-05-14T13:12:11.009Z,100230.50
2023-05-14T13:14:38.470Z,100222.19
2023-05-14T13:17:07.044Z,100226.69
2023-05-14T13:19:34.520Z,100233.00
2023-05-14T13:22:03.269Z,100232.44
2023-05-14T13:24:30.956Z,100223.69
2023-05-14T13:26:58.397Z,100218.41
2023-05-14T13:29:25.793Z,100220.59
2023-05-14T13:31:53.664Z,100222.75
2023-05-14T13:34:21.080Z,100212.66
2023-05-14T13:36:49.779Z,100215.00
2023-05-14T13:39:22.472Z,100222.06
2023-05-14T13:41:50.720Z,100213.63
2023-05-14T13:44:18.144Z,100217.34
2023-05-14T13:46:45.621Z,100213.47
2023-05-14T13:49:13.069Z,100204.25
2023-05-14T13:51:40.493Z,100208.72
2023-05-14T13:54:09.167Z,100213.69
2023-05-14T13:56:37.903Z,100214.50
2023-05-14T13:59:05.894Z,100209.66
2023-05-14T14:01:33.431Z,100207.53
2023-05-14T14:04:00.949Z,100209.44
2023-05-14T14:06:28.409Z,100203.97
2023-05-14T14:08:55.806Z,100200.75
2023-05-14T14:11:23.338Z,100195.03
2023-05-14T14:13:52.033Z,100191.97
2023-05-14T14:16:19.458Z,100182.72
2023-05-14T14:18:46.960Z,100178.59
2023-05-14T14:21:17.790Z,100170.72
2023-05-14T14:23:45.306Z,100185.28
2023-05-14T14:26:12.746Z,100181.06
2023-05-14T14:28:40.858Z,100172.22
2023-05-14T14:31:09.607Z,100176.50
2023-05-14T14:33:37.045Z,100172.13
2023-05-14T14:36:04.942Z,100164.75
2023-05-14T14:38:32.396Z,100169.50
2023-05-14T14:40:59.936Z,100170.66
2023-05-14T14:43:27.365Z,100164.75
2023-05-14T14:45:54.957Z,100165.75
2023-05-14T14:48:30.831Z,100158.03
2023-05-14T14:50:58.707Z,100164.47
2023-05-14T14:53:26.344Z,100165.41
2023-05-14T14:55:54.269Z,100163.94
2023-05-14T14:58:22.127Z,100170.03
2023-05-14T15:00:51.019Z,100157.28
2023-05-14T15:03:18.952Z,100154.78
2023-05-14T15:05:48.004Z,100159.28
2023-05-14T15:08:15.634Z,100160.78
2023-05-14T15:10:43.126Z,100162.97
2023-05-14T15:13:11.284Z,100153.03
2023-05-14T15:15:38.782Z,100158.53
2023-05-14T15:18:06.477Z,100151.19
2023-05-14T15:20:33.942Z,100158.09
2023-05-14T15:23:02.710Z,100147.50
2023-05-14T15:25:30.187Z,100143.81
2023-05-14T15:27:57.682Z,100151.69
2023-05-14T15:30:25.021Z,100145.44
2023-05-14T15:32:54.787Z,100143.84
2023-05-14T15:35:22.700Z,100141.19
2023-05-14T15:37:50.462Z,100142.03
2023-05-14T15:40:23.640Z,100137.56
2023-05-14T15:42:51.196Z,100131.91
2023-05-14T15:45:18.660Z,100135.13
2023-05-14T15:47:46.156Z,100134.38
2023-05-14T15:50:13.575Z,100128.22
2023-05-14T15:52:41.439Z,100137.81
2023-05-14T15:55:09.790Z,100127.78
2023-05-14T15:57:38.585Z,100126.06
2023-05-14T16:00:10.388Z,100134.91
2023-05-14T16:02:38.023Z,100127.81
2023-05-14T16:05:06.374Z,100123.56
2023-05-14T16:07:34.168Z,100117.00
2023-05-14T16:10:01.594Z,100122.94
2023-05-14T16:12:29.024Z,100129.88
2023-05-14T16:14:58.033Z,100143.25
2023-05-14T16:17:25.493Z,100147.75
2023-05-14T16:19:55.326Z,100151.03
2023-05-14T16:22:23.603Z,100154.22
2023-05-14T16:24:51.010Z,100158.28
2023-05-14T16:27:19.342Z,100154.25
2023-05-14T16:29:46.761Z,100159.53
2023-05-14T16:32:15.558Z,100153.03
2023-05-14T16:34:47.357Z,100153.06
2023-05-14T16:37:15.076Z,100167.59
2023-05-14T16:39:42.459Z,100154.25
2023-05-14T16:42:09.853Z,100170.31
2023-05-14T16:44:37.229Z,100153.78
2023-05-14T16:47:05.058Z,100156.66
2023-05-14T16:49:33.764Z,100148.13
2023-05-14T16:52:01.151Z,100152.59
2023-05-14T16:54:28.654Z,100147.28
2023-05-14T16:56:56.341Z,100157.41
2023-05-14T16:59:23.765Z,100150.16
2023-05-14T17:01:51.185Z,100145.34
2023-05-14T17:04:18.690Z,100146.53
2023-05-14T17:06:48.102Z,100140.09
2023-05-14T17:09:16.533Z,100141.66
2023-05-14T17:11:44.136Z,100139.16
2023-05-14T17:14:11.838Z,100143.63
2023-05-14T17:16:40.509Z,100129.75
2023-05-14T17:19:08.367Z,100138.75
2023-05-14T17:21:35.914Z,100129.91
2023-05-14T17:24:04.795Z,100141.97
2023-05-14T17:26:32.278Z,100134.22
2023-05-14T17:28:59.663Z,100134.09
2023-05-14T17:31:27.090Z,100138.50
2023-05-14T17:33:54.525Z,100137.78
2023-05-14T17:36:22.089Z,100135.63
2023-05-14T17:38:49.524Z,100137.97
2023-05-14T17:41:18.221Z,100146.00
2023-05-14T17:43:45.619Z,100140.75
2023-05-14T17:46:13.068Z,100147.78
2023-05-14T17:48:42.126Z,100145.41
2023-05-14T17:51:09.534Z,100137.53
2023-05-14T17:53:36.948Z,100138.34
2023-05-14T17:56:04.825Z,100138.72
2023-05-14T17:58:33.521Z,100140.34
2023-05-14T18:01:00.931Z,100137.97
2023-05-14T18:03:28.492Z,100139.59
2023-05-14T18:05:56.151Z,100149.03
2023-05-14T18:08:23.592Z,100136.63
2023-05-14T18:10:50.965Z,100137.03
2023-05-14T18:13:18.363Z,100140.94
2023-05-14T18:15:47.318Z,100140.22
2023-05-14T18:18:17.051Z,100132.09
2023-05-14T18:20:44.440Z,100138.53
2023-05-14T18:23:13.140Z,100136.44
2023-05-14T18:25:40.491Z,100145.91
2023-05-14T18:28:08.058Z,100143.53
2023-05-14T18:30:35.630Z,100145.50
2023-05-14T18:33:04.575Z,100142.56
2023-05-14T18:35:32.164Z,100143.59
2023-05-14T18:37:59.618Z,100144.38
2023-05-14T18:40:27.065Z,100152.69
2023-05-14T18:42:54.430Z,100147.25
2023-05-14T18:45:23.971Z,100151.88
2023-05-14T18:47:51.699Z,100160.50
2023-05-14T18:50:20.437Z,100150.28
2023-05-14T18:52:49.146Z,100155.59
2023-05-14T18:55:16.632Z,100161.72
2023-05-14T18:57:44.091Z,100162.47
2023-05-14T19:00:15.275Z,100158.28
2023-05-14T19:02:42.784Z,100164.31
2023-05-14T19:05:10.737Z,100171.25
2023-05-14T19:07:40.700Z,100175.25
2023-05-14T19:10:09.475Z,100174.13
2023-05-14T19:12:36.897Z,100166.13
2023-05-14T19:15:09.131Z,100170.63
2023-05-14T19:17:37.347Z,100176.50
2023-05-14T19:20:06.340Z,100174.84
2023-05-14T19:22:33.807Z,100176.22
2023-05-14T19:25:05.096Z,100182.03
2023-05-14T19:27:33.835Z,100185.69
2023-05-14T19:30:01.615Z,100178.59
2023-05-14T19:32:29.211Z,100178.88
2023-05-14T19:34:56.589Z,100181.03
2023-05-14T19:37:24.064Z,100186.09
2023-05-14T19:39:51.444Z,100189.50
2023-05-14T19:42:20.187Z,100184.81
2023-05-14T19:44:47.586Z,100187.13
2023-05-14T19:47:15.072Z,100185.75
2023-05-14T19:49:42.521Z,100181.50
2023-05-14T19:52:11.273Z,100175.06
2023-05-14T19:54:38.632Z,100164.91
2023-05-14T19:57:06.795Z,100172.63
2023-05-14T19:59:35.573Z,100173.06
2023-05-14T20:02:04.569Z,100170.06
2023-05-14T20:04:33.101Z,100166.59
2023-05-14T20:07:00.763Z,100175.25
2023-05-14T20:09:28.133Z,100170.56
2023-05-14T20:11:55.649Z,100167.59
2023-05-14T20:14:23.030Z,100160.84
2023-05-14T20:16:51.820Z,100147.66
2023-05-14T20:19:20.505Z,100156.22
2023-05-14T20:21:48.516Z,100146.53
2023-05-14T20:24:15.878Z,100150.59
2023-05-14T20:26:47.319Z,100147.88
2023-05-14T20:29:15.198Z,100144.59
2023-05-14T20:31:42.567Z,100147.63
2023-05-14T20:34:11.292Z,100143.94
2023-05-14T20:36:38.716Z,100143.31
2023-05-14T20:39:06.395Z,100137.13
2023-05-14T20:41:33.780Z,100139.25
2023-05-14T20:44:01.168Z,100139.47
2023-05-14T21:01:00.856Z,100116.63
2023-05-14T21:03:30.269Z,100113.72
2023-05-14T21:05:57.836Z,100110.91
2023-05-14T21:08:25.208Z,100105.44
2023-05-14T21:10:52.591Z,100103.59
2023-05-14T21:13:19.973Z,100111.22
2023-05-14T21:15:47.430Z,100105.69
2023-05-14T21:18:16.137Z,100102.81
2023-05-14T21:20:43.571Z,100091.97
2023-05-14T21:23:10.965Z,100088.16
2023-05-14T21:25:38.353Z,100093.31
2023-05-14T21:28:05.943Z,100092.09
2023-05-14T21:30:33.381Z,100092.09
2023-05-14T21:33:00.906Z,100088.13
2023-05-14T21:35:29.665Z,100088.38
2023-05-14T21:37:57.090Z,100088.72
2023-05-14T21:40:24.465Z,100082.75
2023-05-14T21:42:51.841Z,100083.69
2023-05-14T21:45:20.158Z,100083.69
2023-05-14T21:47:48.593Z,100080.25
2023-05-14T21:50:16.092Z,100082.25
2023-05-14T21:52:44.885Z,100069.16
2023-05-14T21:55:12.301Z,100061.19
2023-05-14T21:57:39.732Z,100058.97
2023-05-14T22:00:12.910Z,100066.63
2023-05-14T22:02:40.685Z,100057.09
2023-05-14T22:05:08.613Z,100053.56
2023-05-14T22:07:35.999Z,100047.00
2023-05-14T22:10:05.078Z,100052.91
2023-05-14T22:12:32.473Z,100052.84
2023-05-14T22:14:59.908Z,100049.75
2023-05-14T22:17:28.021Z,100055.94
2023-05-14T22:19:55.464Z,100049.91
2023-05-14T22:22:22.860Z,100048.28
2023-05-14T22:24:50.291Z,100049.09
2023-05-14T22:27:19.364Z,100045.13
2023-05-14T22:29:46.785Z,100044.59
2023-05-14T22:32:14.195Z,100035.50
2023-05-14T22:34:41.635Z,100039.03
2023-05-14T22:37:09.032Z,100037.94
2023-05-14T22:39:36.459Z,100031.22
2023-05-14T22:42:03.870Z,100023.47
2023-05-14T22:44:32.917Z,100027.59
2023-05-14T22:47:00.405Z,100023.88
2023-05-14T22:49:27.796Z,100023.13
2023-05-14T22:51:55.486Z,100024.06
2023-05-14T22:54:22.864Z,100010.28
2023-05-14T22:56:51.224Z,100010.81
2023-05-14T22:59:18.591Z,100014.41
2023-05-14T23:01:47.438Z,100006.25
2023-05-14T23:04:14.865Z,100003.97
2023-05-14T23:06:42.399Z,100006.53
2023-05-14T23:09:09.783Z,99999.38
2023-05-14T23:11:37.164Z,99994.50
2023-05-14T23:14:04.551Z,99991.69
2023-05-14T23:16:32.664Z,99982.03
2023-05-14T23:19:01.601Z,99977.22
2023-05-14T23:21:29.132Z,99977.66
2023-05-14T23:23:56.489Z,99971.25
2023-05-14T23:26:23.891Z,99973.66
2023-05-14T23:28:51.575Z,99968.81
2023-05-14T23:31:19.059Z,99962.56
2023-05-14T23:33:46.623Z,99967.19
2023-05-14T23:36:15.904Z,99973.41
2023-05-14T23:38:44.260Z,99960.44
2023-05-14T23:41:11.645Z,99960.56
2023-05-14T23:43:39.080Z,99951.88
2023-05-14T23:46:06.761Z,99957.59
2023-05-14T23:48:34.270Z,99944.22
2023-05-14T23:51:01.722Z,99939.91
2023-05-14T23:53:30.475Z,99946.63
2023-05-14T23:55:58.055Z,99940.63
2023-05-14T23:58:26.277Z,99936.00
